Time;durP1;ratioP1;P1;durP2;ratioP2;P2;SDS_P1;SDS_P2;PMS_P1;PMS_P2;Temp;Humidity;BMP_temperature;BMP_pressure;BME280_temperature;BME280_humidity;BME280_pressure;Samples;Min_cycle;Max_cycle;Signal;HPM_P1;HPM_P2
2023/02/24 00:02:07;;;;;;;80.25;31.27;;;;;;;6.24;100.00;100239.88;5020022;28;20060;-64
2023/02/24 00:04:39;;;;;;;74.88;29.83;;;;;;;6.24;100.00;100235.50;5029108;28;20432;-63
2023/02/24 00:07:09;;;;;;;77.25;29.40;;;;;;;6.23;100.00;100236.41;5025553;28;20084;-63
2023/02/24 00:09:37;;;;;;;71.88;30.15;;;;;;;6.21;100.00;100227.78;5020379;28;20428;-62
2023/02/24 00:12:11;;;;;;;70.07;27.50;;;;;;;6.22;100.00;100223.44;5042256;28;20448;-64
2023/02/24 00:14:40;;;;;;;75.22;28.10;;;;;;;6.17;100.00;100222.78;5006209;28;20054;-63
2023/02/24 00:17:08;;;;;;;72.13;27.45;;;;;;;6.19;100.00;100220.94;5048692;28;20077;-63
2023/02/24 00:19:36;;;;;;;65.05;26.23;;;;;;;6.19;100.00;100227.03;5027830;28;20140;-63
2023/02/24 00:22:05;;;;;;;69.22;28.05;;;;;;;6.17;100.00;100228.88;5026763;28;20454;-63
2023/02/24 00:24:34;;;;;;;72.80;29.23;;;;;;;6.15;100.00;100225.47;5030003;28;20073;-64
2023/02/24 00:27:06;;;;;;;70.55;26.23;;;;;;;6.11;100.00;100218.69;5030252;28;20045;-64
2023/02/24 00:29:36;;;;;;;63.33;25.38;;;;;;;6.11;100.00;100216.06;5025126;28;20124;-63
2023/02/24 00:32:06;;;;;;;68.20;26.27;;;;;;;6.11;100.00;100210.00;5028498;28;20046;-63
2023/02/24 00:34:35;;;;;;;72.15;27.45;;;;;;;6.15;100.00;100211.56;5033290;28;20063;-64
2023/02/24 00:37:05;;;;;;;68.25;28.20;;;;;;;6.15;100.00;100209.78;5024208;28;20415;-62
2023/02/24 00:39:33;;;;;;;66.65;26.90;;;;;;;6.12;100.00;100209.06;5027542;28;20052;-63
2023/02/24 00:42:03;;;;;;;68.68;25.90;;;;;;;6.11;100.00;100204.78;5023018;28;20049;-63
2023/02/24 00:44:35;;;;;;;53.13;21.23;;;;;;;6.13;100.00;100203.81;5028123;28;20069;-63
2023/02/24 00:47:05;;;;;;;53.75;21.52;;;;;;;6.12;100.00;100198.63;5025381;28;20056;-62
2023/02/24 00:49:34;;;;;;;58.95;21.45;;;;;;;6.11;100.00;100194.31;5037808;28;20102;-63
2023/02/24 00:52:03;;;;;;;55.67;21.30;;;;;;;6.05;100.00;100198.94;5033195;28;20133;-63
2023/02/24 00:54:34;;;;;;;57.28;20.63;;;;;;;6.01;100.00;100204.38;5038534;28;20057;-63
2023/02/24 00:57:02;;;;;;;44.63;17.75;;;;;;;5.94;100.00;100203.78;5027318;28;20053;-63
2023/02/24 00:59:29;;;;;;;53.53;18.70;;;;;;;5.84;100.00;100200.72;5036249;28;20136;-64
2023/02/24 01:01:57;;;;;;;48.53;17.58;;;;;;;5.79;100.00;100197.50;5031250;28;20063;-62
2023/02/24 01:04:24;;;;;;;50.13;17.58;;;;;;;5.79;100.00;100201.88;5030476;28;20045;-63
2023/02/24 01:06:58;;;;;;;46.35;16.02;;;;;;;5.69;100.00;100190.16;5036973;28;20065;-64
2023/02/24 01:09:29;;;;;;;26.90;10.25;;;;;;;5.62;100.00;100204.41;5030574;28;20056;-63
2023/02/24 01:14:43;;;;;;;;;;;;;;;5.43;100.00;100196.53;5030788;28;20045;-62
2023/02/24 01:17:11;;;;;;;22.92;8.60;;;;;;;5.33;100.00;100190.88;5041833;22;19919;-64
2023/02/24 01:19:38;;;;;;;22.83;8.40;;;;;;;5.23;100.00;100193.06;5011761;28;20051;-64
2023/02/24 01:22:08;;;;;;;29.08;9.18;;;;;;;5.18;100.00;100192.41;5012299;28;20145;-64
2023/02/24 01:24:37;;;;;;;25.75;9.48;;;;;;;5.21;100.00;100191.41;5014219;28;20069;-64
2023/02/24 01:27:05;;;;;;;23.67;8.25;;;;;;;5.15;100.00;100183.88;5020416;28;20414;-64
2023/02/24 01:29:38;;;;;;;20.52;8.45;;;;;;;5.11;100.00;100185.75;5008139;28;20133;-64
2023/02/24 01:32:06;;;;;;;27.33;8.05;;;;;;;5.04;100.00;100182.59;5015453;28;20129;-64
2023/02/24 01:34:33;;;;;;;21.38;7.93;;;;;;;5.03;100.00;100195.66;5017283;28;20117;-64
2023/02/24 01:37:01;;;;;;;25.85;6.80;;;;;;;4.94;100.00;100189.09;5009017;28;20068;-66
2023/02/24 01:39:28;;;;;;;27.45;7.38;;;;;;;4.95;100.00;100193.38;5014076;28;20660;-64
2023/02/24 01:42:00;;;;;;;21.52;5.80;;;;;;;5.01;100.00;100194.91;5010109;28;20054;-65
2023/02/24 01:44:28;;;;;;;22.92;7.63;;;;;;;4.79;98.67;100182.75;5011337;28;20042;-62
2023/02/24 01:46:55;;;;;;;31.40;7.00;;;;;;;4.69;97.99;100183.22;5015325;28;20138;-65
2023/02/24 01:49:28;;;;;;;27.00;6.85;;;;;;;4.58;97.48;100175.84;5009437;28;20164;-64
2023/02/24 01:52:00;;;;;;;27.88;7.30;;;;;;;4.57;98.43;100175.00;5004860;28;20135;-64
2023/02/24 01:54:32;;;;;;;27.90;5.70;;;;;;;4.60;97.29;100186.22;5009219;28;20049;-64
2023/02/24 01:57:02;;;;;;;21.23;6.25;;;;;;;4.51;96.27;100172.66;5008831;28;20046;-63
2023/02/24 01:59:29;;;;;;;22.90;6.15;;;;;;;4.41;95.15;100168.69;5004884;28;20767;-64
2023/02/24 02:02:03;;;;;;;26.33;6.35;;;;;;;4.30;94.28;100170.91;5014933;28;20045;-64
2023/02/24 02:04:55;;;;;;;27.75;5.57;;;;;;;4.21;94.29;100181.69;5013759;28;20049;-64
2023/02/24 02:07:23;;;;;;;27.50;6.28;;;;;;;4.16;94.21;100163.66;5007429;28;20132;-63
2023/02/24 02:09:54;;;;;;;29.02;4.85;;;;;;;4.17;93.86;100172.31;5010390;28;20049;-63
2023/02/24 02:12:23;;;;;;;24.55;4.93;;;;;;;4.20;94.18;100162.63;5004044;28;20060;-63
2023/02/24 02:14:53;;;;;;;30.95;4.88;;;;;;;4.15;92.61;100161.94;5015592;28;20046;-64
2023/02/24 02:17:23;;;;;;;23.00;4.22;;;;;;;4.02;91.26;100164.19;5004049;28;20050;-64
2023/02/24 02:20:31;;;;;;;38.65;5.93;;;;;;;3.99;92.48;100164.31;5013603;28;20052;-65
2023/02/24 02:23:10;;;;;;;30.77;4.22;;;;;;;3.91;91.39;100162.91;5014560;28;20517;-64
2023/02/24 02:26:01;;;;;;;26.13;4.55;;;;;;;3.85;91.55;100161.41;5009934;28;20514;-63
2023/02/24 02:28:40;;;;;;;21.13;5.07;;;;;;;3.92;91.24;100164.63;5026000;28;20046;-64
2023/02/24 02:31:45;;;;;;;32.88;4.38;;;;;;;3.85;90.24;100156.19;5011487;28;20117;-61
2023/02/24 02:34:24;;;;;;;17.13;3.20;;;;;;;3.70;91.35;100162.00;5009848;28;20081;-64
2023/02/24 02:37:31;;;;;;;17.85;3.78;;;;;;;3.63;91.30;100163.97;5005530;28;20128;-63
2023/02/24 02:40:18;;;;;;;21.48;5.07;;;;;;;3.51;89.92;100167.00;5004456;28;20058;-66
2023/02/24 02:42:58;;;;;;;24.75;3.55;;;;;;;3.39;88.40;100159.69;4990657;28;20133;-64
2023/02/24 02:45:33;;;;;;;19.50;3.63;;;;;;;3.39;86.61;100170.94;5007758;28;20053;-64
2023/02/24 02:48:11;;;;;;;21.15;3.47;;;;;;;3.32;85.54;100161.66;5011085;28;20060;-64
2023/02/24 02:50:50;;;;;;;18.98;4.10;;;;;;;3.29;85.30;100160.03;5003151;28;20062;-64
2023/02/24 02:53:36;;;;;;;21.25;3.40;;;;;;;3.24;86.21;100158.47;5007363;28;20057;-64
2023/02/24 02:56:08;;;;;;;14.98;3.17;;;;;;;3.24;85.98;100158.47;5007001;28;20057;-64
2023/02/24 02:58:39;;;;;;;26.15;3.90;;;;;;;3.23;85.20;100152.41;5008797;28;20133;-64
2023/02/24 03:01:06;;;;;;;21.48;3.28;;;;;;;3.17;84.37;100157.00;5008672;28;20506;-65
2023/02/24 03:03:37;;;;;;;16.65;3.22;;;;;;;3.13;83.78;100166.66;5016838;28;20056;-63
2023/02/24 03:06:10;;;;;;;16.27;3.70;;;;;;;3.10;84.75;100156.38;5005435;28;20049;-64
2023/02/24 03:08:39;;;;;;;21.23;4.05;;;;;;;3.04;84.02;100157.44;5008493;28;20133;-64
2023/02/24 03:11:10;;;;;;;16.85;2.78;;;;;;;2.99;84.13;100159.34;5007155;28;20057;-64
2023/02/24 03:13:40;;;;;;;14.63;2.83;;;;;;;3.09;84.88;100151.22;5005577;28;20133;-65
2023/02/24 03:16:09;;;;;;;27.10;3.55;;;;;;;3.02;83.85;100155.81;5006372;28;20105;-65
2023/02/24 03:18:43;;;;;;;16.63;2.95;;;;;;;2.99;84.88;100148.13;5003741;28;20324;-65
2023/02/24 03:21:15;;;;;;;16.52;3.42;;;;;;;3.02;85.28;100143.66;5008199;28;20528;-65
2023/02/24 03:23:47;;;;;;;27.20;3.95;;;;;;;3.04;85.24;100141.84;5008326;28;20145;-66
2023/02/24 03:26:30;;;;;;;10.63;2.25;;;;;;;3.02;84.48;100135.00;5006593;28;20053;-64
2023/02/24 03:28:58;;;;;;;14.20;2.92;;;;;;;2.98;84.70;100130.81;5005380;28;20176;-63
2023/02/24 03:31:28;;;;;;;15.90;2.65;;;;;;;2.94;85.33;100131.84;5005029;28;20060;-64
2023/02/24 03:34:04;;;;;;;14.75;2.42;;;;;;;2.94;85.33;100124.88;5013408;28;20144;-63
2023/02/24 03:36:32;;;;;;;20.10;2.83;;;;;;;2.98;85.81;100134.25;5018260;28;20060;-64
2023/02/24 03:39:00;;;;;;;16.08;2.72;;;;;;;3.03;85.71;100114.16;5010859;28;20068;-64
2023/02/24 03:41:34;;;;;;;10.38;2.30;;;;;;;3.19;84.72;100118.78;5007859;28;20129;-64
2023/02/24 03:44:02;;;;;;;18.45;2.40;;;;;;;3.09;85.66;100117.41;5011837;28;20042;-63
2023/02/24 03:46:30;;;;;;;24.17;3.53;;;;;;;3.02;85.25;100112.47;5006172;28;20449;-59
2023/02/24 03:49:04;;;;;;;15.18;3.15;;;;;;;2.94;85.64;100109.28;5008092;28;20505;-63
2023/02/24 03:51:31;;;;;;;20.98;3.97;;;;;;;2.93;86.11;100102.38;5005307;28;20057;-63
2023/02/24 03:54:36;;;;;;;20.40;4.32;;;;;;;2.95;86.21;100112.72;5007238;28;20048;-64
2023/02/24 03:57:09;;;;;;;15.52;2.90;;;;;;;2.94;87.08;100098.03;4999724;28;20046;-63
2023/02/24 03:59:56;;;;;;;21.10;4.18;;;;;;;3.01;86.65;100100.34;5004360;28;20050;-64
2023/02/24 04:02:27;;;;;;;18.98;3.70;;;;;;;2.98;86.06;100097.03;5011951;28;20064;-63
2023/02/24 04:05:04;;;;;;;17.63;4.13;;;;;;;2.99;86.25;100096.09;5004723;28;20053;-63
2023/02/24 04:07:36;;;;;;;21.30;3.88;;;;;;;2.96;86.72;100094.44;5008938;28;20131;-65
2023/02/24 04:10:14;;;;;;;12.13;2.92;;;;;;;2.97;86.34;100077.97;5005847;28;20099;-65
2023/02/24 04:12:46;;;;;;;30.45;4.88;;;;;;;2.98;86.16;100081.41;5014010;28;20129;-63
2023/02/24 04:15:36;;;;;;;32.20;4.60;;;;;;;3.01;85.78;100083.88;5006648;28;20136;-64
2023/02/24 04:18:08;;;;;;;21.48;4.07;;;;;;;3.04;85.56;100083.78;5001231;28;20041;-63
2023/02/24 04:20:38;;;;;;;16.83;4.13;;;;;;;3.05;85.53;100080.28;5010520;28;20072;-63
2023/02/24 04:23:10;;;;;;;17.10;4.30;;;;;;;3.00;85.49;100080.44;5008143;28;20056;-65
2023/02/24 04:25:39;;;;;;;19.75;4.03;;;;;;;3.02;85.85;100068.25;5003456;28;20056;-65
2023/02/24 04:28:06;;;;;;;18.75;3.88;;;;;;;2.98;85.80;100064.06;5012042;28;20437;-65
2023/02/24 04:30:37;;;;;;;18.65;3.78;;;;;;;3.02;85.66;100063.06;5006861;28;20132;-64
2023/02/24 04:33:06;;;;;;;12.82;3.60;;;;;;;2.99;84.69;100054.50;5007245;28;20426;-64
2023/02/24 04:35:34;;;;;;;16.98;3.72;;;;;;;3.03;85.09;100054.34;5006041;28;20076;-64
2023/02/24 04:38:02;;;;;;;20.10;4.85;;;;;;;2.99;85.02;100057.09;5002629;28;20056;-62
2023/02/24 04:40:30;;;;;;;17.38;4.63;;;;;;;2.98;85.52;100050.22;5002633;28;20561;-64
2023/02/24 04:42:57;;;;;;;19.42;4.30;;;;;;;2.95;85.28;100056.38;5011744;28;20049;-65
2023/02/24 04:45:26;;;;;;;16.00;3.85;;;;;;;2.94;85.39;100056.44;5001621;28;20054;-65
2023/02/24 04:47:56;;;;;;;22.60;4.95;;;;;;;2.93;85.91;100049.53;5001756;28;20150;-64
2023/02/24 04:50:24;;;;;;;21.17;5.00;;;;;;;2.97;85.93;100046.78;5001243;28;20133;-64
2023/02/24 04:52:54;;;;;;;22.17;4.15;;;;;;;2.97;86.09;100049.38;5008204;28;20060;-64
2023/02/24 04:55:25;;;;;;;13.20;4.05;;;;;;;2.97;86.26;100044.16;5004912;28;20137;-65
2023/02/24 04:57:53;;;;;;;17.08;3.85;;;;;;;3.10;85.24;100031.53;5004976;28;20078;-64
2023/02/24 05:00:21;;;;;;;12.05;3.40;;;;;;;3.04;84.82;100029.19;5019549;28;20159;-65
2023/02/24 05:02:49;;;;;;;19.35;3.50;;;;;;;3.03;84.67;100033.53;4999944;28;20060;-65
2023/02/24 05:05:24;;;;;;;16.23;3.15;;;;;;;3.00;84.09;100032.78;5011723;28;20061;-64
2023/02/24 05:07:55;;;;;;;23.38;4.13;;;;;;;2.99;83.77;100025.91;5002568;28;20145;-64
2023/02/24 05:10:26;;;;;;;14.05;3.33;;;;;;;2.91;84.06;100033.13;5003609;28;20506;-63
2023/02/24 05:12:57;;;;;;;17.40;3.67;;;;;;;2.88;84.28;100023.72;5009121;28;20148;-63
2023/02/24 05:15:31;;;;;;;14.80;3.75;;;;;;;2.90;83.94;100014.09;5005456;28;20046;-63
2023/02/24 05:18:06;;;;;;;18.38;3.53;;;;;;;2.92;85.01;100003.63;5002711;28;20574;-64
2023/02/24 05:23:30;;;;;;;18.42;3.42;;;;;;;2.89;83.02;100002.00;5003886;28;20045;-64
2023/02/24 05:25:58;;;;;;;10.77;3.50;;;;;;;2.92;83.51;100007.06;5003189;28;20380;-63
2023/02/24 05:28:25;;;;;;;7.95;2.80;;;;;;;2.95;83.84;99998.31;5007407;28;20141;-66
2023/02/24 05:30:53;;;;;;;11.20;2.60;;;;;;;2.96;82.92;100003.44;5005830;28;20141;-64
2023/02/24 05:33:21;;;;;;;17.77;2.97;;;;;;;2.92;82.83;99995.81;5004456;28;20054;-64
2023/02/24 05:35:49;;;;;;;11.77;3.50;;;;;;;2.89;83.20;99988.16;5002337;28;20540;-64
2023/02/24 05:38:18;;;;;;;21.10;3.15;;;;;;;2.90;83.69;99990.69;5007203;28;20053;-64
2023/02/24 05:40:48;;;;;;;11.10;2.45;;;;;;;2.97;83.53;99986.09;5009656;28;20057;-65
2023/02/24 05:43:18;;;;;;;9.95;2.50;;;;;;;2.97;83.89;99989.56;5004020;28;20061;-65
2023/02/24 05:45:46;;;;;;;11.85;2.85;;;;;;;2.98;83.32;99986.06;5010770;28;20136;-63
2023/02/24 05:48:13;;;;;;;15.43;3.50;;;;;;;2.97;84.46;99986.09;5007172;28;20084;-62
2023/02/24 05:50:45;;;;;;;15.98;3.30;;;;;;;2.95;83.85;99988.75;5013593;28;20046;-64
2023/02/24 05:53:12;;;;;;;13.65;2.22;;;;;;;2.93;83.91;99977.59;5005660;28;20038;-64
2023/02/24 05:55:40;;;;;;;11.25;2.33;;;;;;;2.92;84.26;99975.88;5008432;28;20134;-64
2023/02/24 05:58:07;;;;;;;9.93;2.22;;;;;;;2.89;84.74;99965.59;5025441;28;20137;-64
2023/02/24 06:00:37;;;;;;;12.70;2.15;;;;;;;2.87;83.79;99967.41;5006280;28;20219;-64
2023/02/24 06:03:16;;;;;;;14.27;2.65;;;;;;;2.83;83.55;99968.41;4994612;28;20490;-65
2023/02/24 06:05:43;;;;;;;11.75;2.10;;;;;;;2.82;83.99;99973.69;4993836;28;20077;-64
2023/02/24 06:08:10;;;;;;;10.65;2.60;;;;;;;2.84;84.23;99974.47;4994522;28;20060;-64
2023/02/24 06:10:40;;;;;;;19.90;3.53;;;;;;;2.87;84.57;99967.41;5007930;28;20493;-63
2023/02/24 06:13:09;;;;;;;11.15;2.70;;;;;;;2.84;82.92;99959.75;5001900;28;20168;-64
2023/02/24 06:15:36;;;;;;;11.70;2.15;;;;;;;2.89;83.51;99959.56;5001407;28;20073;-62
2023/02/24 06:18:03;;;;;;;14.55;2.75;;;;;;;2.85;83.47;99960.59;5008570;28;20049;-65
2023/02/24 06:20:31;;;;;;;8.50;2.20;;;;;;;2.85;83.78;99958.00;5010413;28;20049;-64
2023/02/24 06:23:00;;;;;;;14.18;2.58;;;;;;;2.87;83.73;99948.38;4999113;28;20049;-64
2023/02/24 06:25:28;;;;;;;14.52;2.05;;;;;;;2.84;84.13;99954.53;4998972;28;20122;-65
2023/02/24 06:27:58;;;;;;;10.10;2.17;;;;;;;2.83;84.48;99951.97;5001741;28;20061;-65
2023/02/24 06:30:26;;;;;;;10.48;1.70;;;;;;;2.84;84.22;99948.47;5008138;28;20132;-64
2023/02/24 06:32:53;;;;;;;13.40;2.63;;;;;;;2.86;84.25;99939.72;5010379;28;20073;-64
2023/02/24 06:35:20;;;;;;;14.25;2.70;;;;;;;2.81;84.79;99946.00;5010454;28;20561;-64
2023/02/24 06:37:49;;;;;;;12.73;2.60;;;;;;;2.84;84.73;99941.53;5011392;28;20041;-64
2023/02/24 06:40:16;;;;;;;9.25;1.92;;;;;;;2.83;85.37;99933.78;5001438;28;20062;-64
2023/02/24 06:42:48;;;;;;;15.38;2.22;;;;;;;2.82;85.65;99932.94;5003681;28;20146;-65
2023/02/24 06:45:15;;;;;;;9.75;2.35;;;;;;;2.82;84.59;99935.53;5002088;28;20052;-65
2023/02/24 06:47:45;;;;;;;9.48;2.50;;;;;;;2.79;83.96;99927.84;5000026;28;20073;-64
2023/02/24 06:50:12;;;;;;;12.05;2.42;;;;;;;2.83;84.23;99928.59;4996635;28;20057;-65
2023/02/24 06:52:39;;;;;;;10.48;1.83;;;;;;;2.90;83.64;99924.84;5003642;28;20633;-65
2023/02/24 06:55:23;;;;;;;15.18;2.42;;;;;;;2.90;82.90;99923.09;5000439;28;20061;-66
2023/02/24 06:57:57;;;;;;;7.45;2.20;;;;;;;2.93;83.40;99916.94;5004855;28;20129;-64
2023/02/24 07:00:35;;;;;;;10.73;2.05;;;;;;;2.98;82.84;99922.81;4996517;28;20042;-65
2023/02/24 07:03:16;;;;;;;12.15;1.95;;;;;;;2.90;81.13;99927.47;5007107;28;20081;-65
2023/02/24 07:06:09;;;;;;;8.20;1.88;;;;;;;2.91;81.91;99918.75;5009322;28;20060;-64
2023/02/24 07:08:37;;;;;;;12.55;2.20;;;;;;;2.90;81.98;99911.88;5005913;28;20157;-65
2023/02/24 07:11:06;;;;;;;12.32;2.42;;;;;;;2.89;82.75;99908.41;5008635;28;20075;-65
2023/02/24 07:13:35;;;;;;;12.57;2.38;;;;;;;2.89;81.77;99911.00;5005971;28;20414;-64
2023/02/24 07:16:05;;;;;;;10.93;2.45;;;;;;;2.89;81.77;99902.38;5006222;28;20053;-64
2023/02/24 07:18:34;;;;;;;11.93;2.15;;;;;;;2.90;81.72;99904.06;5004287;28;20641;-62
2023/02/24 07:21:10;;;;;;;14.13;2.25;;;;;;;2.91;81.63;99903.16;5004101;28;20062;-64
2023/02/24 07:23:39;;;;;;;11.60;2.20;;;;;;;2.94;82.16;99893.47;5008642;28;20075;-63
2023/02/24 07:26:09;;;;;;;6.50;2.03;;;;;;;3.04;82.31;99902.59;5011453;28;20064;-64
2023/02/24 07:28:40;;;;;;;9.75;2.10;;;;;;;3.07;79.85;99896.44;5006928;28;20048;-64
2023/02/24 07:31:09;;;;;;;16.30;2.63;;;;;;;2.98;79.58;99887.25;5009362;28;20068;-63
2023/02/24 07:33:37;;;;;;;23.08;2.58;;;;;;;2.95;80.04;99882.16;5007441;28;20137;-64
2023/02/24 07:36:09;;;;;;;12.93;2.30;;;;;;;2.97;79.09;99879.50;5009254;28;20502;-64
2023/02/24 07:38:37;;;;;;;11.00;2.65;;;;;;;2.96;78.14;99872.59;5011999;28;20128;-64
2023/02/24 07:41:05;;;;;;;7.43;1.88;;;;;;;2.98;77.49;99871.66;5003825;28;20515;-65
2023/02/24 07:43:36;;;;;;;9.82;2.17;;;;;;;3.04;76.84;99873.16;5006735;28;20160;-63
2023/02/24 07:46:06;;;;;;;13.48;2.40;;;;;;;2.94;76.01;99877.88;5011091;28;20128;-65
2023/02/24 07:48:35;;;;;;;8.23;1.95;;;;;;;3.03;75.29;99869.72;5004688;28;20050;-64
2023/02/24 07:51:09;;;;;;;11.68;2.58;;;;;;;2.99;74.82;99860.34;5007018;28;20046;-64
2023/02/24 07:53:39;;;;;;;10.95;2.17;;;;;;;3.00;74.84;99843.81;5007681;28;20056;-64
2023/02/24 07:56:12;;;;;;;13.40;2.40;;;;;;;3.01;74.23;99839.47;5001093;28;20605;-64
2023/02/24 07:58:41;;;;;;;11.32;1.95;;;;;;;2.98;74.18;99842.22;5003888;28;20922;-64
2023/02/24 08:01:21;;;;;;;8.65;1.85;;;;;;;2.99;72.69;99842.16;5006115;28;20137;-64
2023/02/24 08:03:51;;;;;;;8.70;2.70;;;;;;;2.97;71.38;99835.28;5006218;28;20528;-64
2023/02/24 08:06:26;;;;;;;9.88;2.90;;;;;;;2.97;71.66;99820.56;5001532;28;20049;-64
2023/02/24 08:08:57;;;;;;;12.35;2.03;;;;;;;2.96;71.32;99823.22;5007835;28;20124;-65
2023/02/24 08:11:34;;;;;;;10.93;2.65;;;;;;;2.95;72.19;99817.16;5006625;28;20041;-64
2023/02/24 08:14:02;;;;;;;9.18;2.00;;;;;;;3.01;71.62;99811.72;5008677;28;20063;-65
2023/02/24 08:16:38;;;;;;;12.00;1.90;;;;;;;3.05;71.19;99805.47;5013125;28;20051;-65
2023/02/24 08:19:07;;;;;;;9.85;1.90;;;;;;;3.13;72.57;99804.34;5005325;28;20133;-64
2023/02/24 08:21:39;;;;;;;10.57;2.20;;;;;;;3.11;71.44;99809.59;5011647;28;20049;-65
2023/02/24 08:24:19;;;;;;;14.32;2.30;;;;;;;3.01;71.51;99787.47;5004024;28;20064;-64
2023/02/24 08:27:02;;;;;;;8.70;2.20;;;;;;;3.00;72.84;99786.63;5006911;28;20050;-64
2023/02/24 08:29:56;;;;;;;12.60;2.33;;;;;;;3.03;73.16;99776.09;5005500;28;20077;-64
2023/02/24 08:32:35;;;;;;;11.98;2.22;;;;;;;3.09;73.79;99785.41;5000839;28;20056;-64
2023/02/24 08:35:30;;;;;;;13.13;2.33;;;;;;;3.25;72.50;99777.81;5003342;28;20046;-64
2023/02/24 08:38:16;;;;;;;7.30;2.17;;;;;;;3.27;72.49;99766.41;4992122;28;20133;-64
2023/02/24 08:40:51;;;;;;;8.50;2.38;;;;;;;3.25;72.78;99764.81;5001074;28;20062;-63
2023/02/24 08:45:58;;;;;;;18.38;2.85;;;;;;;3.24;73.60;99750.97;5001081;28;20064;-63
2023/02/24 08:48:36;;;;;;;10.95;2.35;;;;;;;3.32;73.45;99750.63;4994159;28;20061;-62
2023/02/24 08:51:05;;;;;;;8.20;2.13;;;;;;;3.32;72.98;99760.19;5003696;28;20181;-64
2023/02/24 08:53:32;;;;;;;11.10;3.05;;;;;;;3.35;73.56;99742.69;5007060;28;20053;-63
2023/02/24 08:56:08;;;;;;;11.10;2.53;;;;;;;3.44;73.01;99744.88;5008479;28;20068;-64
2023/02/24 08:58:47;;;;;;;;;;;;;;;3.45;72.50;99736.16;5011432;28;21588;-63
2023/02/24 09:01:22;;;;;;;11.80;2.63;;;;;;;3.52;71.36;99736.75;5008508;28;19944;-64
2023/02/24 09:03:52;;;;;;;;;;;;;;;3.54;71.20;99725.34;5008083;28;20216;-64
2023/02/24 09:06:25;;;;;;;12.23;2.47;;;;;;;3.59;72.13;99727.75;5020166;28;19921;-63
2023/02/24 09:09:16;;;;;;;10.20;2.13;;;;;;;3.60;72.22;99719.00;5007854;28;20054;-64
2023/02/24 09:11:48;;;;;;;8.30;2.95;;;;;;;3.62;72.59;99714.59;5013791;28;21035;-64
2023/02/24 09:14:19;;;;;;;14.27;3.00;;;;;;;3.67;71.73;99709.19;5017147;28;20140;-64
2023/02/24 09:17:04;;;;;;;17.00;2.92;;;;;;;3.65;72.38;99705.78;5010148;28;20046;-63
2023/02/24 09:22:55;;;;;;;11.02;3.22;;;;;;;3.67;72.23;99711.78;5009057;28;20064;-63
2023/02/24 09:25:24;;;;;;;18.30;2.95;;;;;;;3.63;72.92;99697.22;5012040;28;20132;-63
2023/02/24 09:27:54;;;;;;;11.88;3.13;;;;;;;3.73;72.34;99690.69;5020239;28;20051;-63
2023/02/24 09:30:37;;;;;;;11.02;2.63;;;;;;;3.72;72.59;99713.25;5011582;28;20092;-64
2023/02/24 09:33:40;;;;;;;10.60;2.65;;;;;;;3.81;71.94;99692.03;5021372;28;20052;-64
2023/02/24 09:36:18;;;;;;;14.13;3.47;;;;;;;3.78;71.99;99686.09;5001765;28;20049;-64
2023/02/24 09:41:55;;;;;;;10.68;2.58;;;;;;;3.74;72.36;99671.56;5007787;28;20050;-64
2023/02/24 09:44:24;;;;;;;5.22;2.20;;;;;;;3.73;72.24;99682.88;5011224;28;20463;-63
2023/02/24 09:46:56;;;;;;;8.80;2.28;;;;;;;3.70;71.45;99670.84;5015818;28;20065;-64
2023/02/24 09:49:38;;;;;;;10.18;2.00;;;;;;;3.73;71.85;99667.25;5006235;28;20050;-63
2023/02/24 09:52:17;;;;;;;8.18;1.90;;;;;;;3.76;71.63;99680.97;5007597;28;20559;-63
2023/02/24 09:57:53;;;;;;;7.75;2.42;;;;;;;3.75;70.72;99663.69;4992075;28;20054;-63
2023/02/24 10:00:24;;;;;;;7.35;2.58;;;;;;;3.79;71.26;99649.59;5012363;28;20050;-62
2023/02/24 10:03:18;;;;;;;10.40;2.47;;;;;;;3.78;70.29;99647.94;5012210;28;20071;-63
2023/02/24 10:05:57;;;;;;;9.57;2.30;;;;;;;3.80;72.04;99650.44;5005814;28;20148;-63
2023/02/24 10:08:32;;;;;;;11.13;2.30;;;;;;;3.89;72.05;99654.38;5005622;28;20717;-63
2023/02/24 10:11:07;;;;;;;6.53;1.83;;;;;;;3.86;70.97;99644.94;5009222;28;20048;-64
2023/02/24 10:13:49;;;;;;;10.40;2.13;;;;;;;3.86;71.43;99633.69;5011636;28;20041;-61
2023/02/24 10:16:23;;;;;;;7.43;2.20;;;;;;;3.98;70.41;99636.56;5022046;28;20056;-63
2023/02/24 10:19:13;;;;;;;7.68;1.98;;;;;;;3.98;71.04;99631.34;5011023;28;20049;-63
2023/02/24 10:22:02;;;;;;;9.80;1.83;;;;;;;4.07;69.84;99628.31;5001841;28;20072;-63
2023/02/24 10:24:46;;;;;;;6.85;1.92;;;;;;;4.07;70.23;99619.66;5011027;28;20050;-64
2023/02/24 10:27:31;;;;;;;8.38;2.10;;;;;;;4.11;70.50;99620.34;5008931;28;20049;-63
2023/02/24 10:30:09;;;;;;;8.50;2.43;;;;;;;4.24;69.50;99605.81;5009435;28;20069;-64
2023/02/24 10:32:59;;;;;;;7.32;1.67;;;;;;;4.21;68.96;99600.75;5005964;28;20042;-64
2023/02/24 10:35:32;;;;;;;10.25;2.33;;;;;;;4.22;69.04;99603.25;5013030;28;20057;-63
2023/02/24 10:38:04;;;;;;;10.65;1.80;;;;;;;4.22;69.16;99598.06;5010600;28;20459;-63
2023/02/24 10:40:45;;;;;;;9.25;2.50;;;;;;;4.24;69.13;99590.19;5004028;28;20060;-64
2023/02/24 10:43:18;;;;;;;12.32;2.20;;;;;;;4.24;68.49;99584.97;5002938;28;20663;-64
2023/02/24 10:45:46;;;;;;;16.60;2.67;;;;;;;4.27;68.78;99580.44;5014133;28;20619;-64
2023/02/24 10:48:23;;;;;;;9.73;2.00;;;;;;;4.24;68.76;99574.56;5010670;28;20068;-63
2023/02/24 10:51:18;;;;;;;11.70;2.25;;;;;;;4.28;69.34;99581.31;5005843;28;20759;-64
2023/02/24 10:54:08;;;;;;;7.57;1.95;;;;;;;4.23;68.87;99570.25;5026286;22;20527;-63
2023/02/24 10:56:54;;;;;;;5.28;1.63;;;;;;;4.01;70.22;99579.13;5002826;28;20093;-62
2023/02/24 11:02:05;;;;;;;7.30;2.00;;;;;;;4.02;71.29;99554.78;4990971;28;20050;-63
2023/02/24 11:07:32;;;;;;;8.20;1.65;;;;;;;3.81;74.73;99550.59;4989384;28;20145;-63
2023/02/24 11:10:24;;;;;;;7.15;2.45;;;;;;;3.74;76.89;99557.88;4985329;28;20057;-63
2023/02/24 11:18:31;;;;;;;9.30;2.22;;;;;;;3.37;83.76;99543.13;4993970;28;20045;-63
2023/02/24 11:21:11;;;;;;;11.00;2.50;;;;;;;3.22;85.62;99538.66;4991573;28;20058;-63
2023/02/24 11:23:39;;;;;;;11.63;2.35;;;;;;;3.27;86.33;99526.28;4992196;28;20050;-64
2023/02/24 11:26:26;;;;;;;7.80;1.90;;;;;;;3.16;88.96;99520.75;4986536;28;20170;-63
2023/02/24 11:29:30;;;;;;;10.40;1.92;;;;;;;3.04;89.83;99515.19;4985919;28;20485;-63
2023/02/24 11:32:07;;;;;;;10.77;2.40;;;;;;;3.03;91.74;99510.06;4994348;28;20387;-61
2023/02/24 11:34:48;;;;;;;6.65;1.95;;;;;;;3.03;92.78;99505.69;5017859;28;20060;-62
2023/02/24 11:37:36;;;;;;;14.30;3.03;;;;;;;2.97;94.14;99512.91;5005215;28;20089;-64
2023/02/24 11:40:14;;;;;;;6.55;1.88;;;;;;;2.92;93.42;99507.94;5001151;28;20054;-63
2023/02/24 11:42:47;;;;;;;8.68;2.47;;;;;;;2.84;94.28;99507.47;5010991;28;20085;-64
2023/02/24 11:45:17;;;;;;;8.38;2.38;;;;;;;2.82;94.78;99501.47;5015309;28;20454;-64
2023/02/24 11:47:50;;;;;;;6.85;2.47;;;;;;;2.70;96.14;99489.88;5008310;28;20141;-63
2023/02/24 11:50:27;;;;;;;11.68;2.83;;;;;;;2.56;97.34;99497.44;4988514;28;20429;-61
2023/02/24 11:52:56;;;;;;;7.80;2.58;;;;;;;2.44;99.15;99475.44;4997461;28;20503;-62
2023/02/24 11:55:45;;;;;;;7.97;2.63;;;;;;;2.43;100.00;99472.91;4990979;28;20065;-62
2023/02/24 11:58:40;;;;;;;4.60;2.22;;;;;;;2.43;100.00;99458.19;5000382;28;20062;-64
2023/02/24 12:01:14;;;;;;;7.57;2.28;;;;;;;2.48;99.80;99463.19;4995879;28;20115;-62
2023/02/24 12:03:44;;;;;;;14.57;2.20;;;;;;;2.47;100.00;99453.69;4984564;28;20137;-63
2023/02/24 12:06:17;;;;;;;8.32;2.28;;;;;;;2.38;100.00;99454.09;4990393;28;20108;-63
2023/02/24 12:08:51;;;;;;;5.38;1.95;;;;;;;2.37;100.00;99447.22;4994221;28;20056;-63
2023/02/24 12:11:24;;;;;;;6.13;1.77;;;;;;;2.29;100.00;99440.59;4984555;28;20058;-63
2023/02/24 12:14:01;;;;;;;8.27;3.13;;;;;;;2.31;100.00;99431.91;4990568;28;20481;-63
2023/02/24 12:16:32;;;;;;;7.30;2.78;;;;;;;2.34;100.00;99432.59;4990025;28;20141;-60
2023/02/24 12:19:08;;;;;;;6.90;1.80;;;;;;;2.38;100.00;99418.56;5005626;28;20075;-62
2023/02/24 12:21:38;;;;;;;;;;;;;;;2.35;100.00;99417.88;4995024;28;20363;-63
2023/02/24 12:24:11;;;;;;;9.90;2.80;;;;;;;2.28;100.00;99415.53;4991924;28;19948;-63
2023/02/24 12:26:50;;;;;;;11.68;2.35;;;;;;;2.28;100.00;99410.34;4990743;28;20058;-62
2023/02/24 12:29:41;;;;;;;12.05;2.42;;;;;;;2.28;100.00;99427.69;4992481;28;21079;-63